sensor_id;sensor_type;location;lat;lon;timestamp;P1;durP1;ratioP1;P2;durP2;ratioP2
19436;SDS011;9854;50.968;4.168;2023-07-28T00:02:21;7.10;;;5.28;;
19436;SDS011;9854;50.968;4.168;2023-07-28T00:04:47;10.52;;;6.03;;
19436;SDS011;9854;50.968;4.168;2023-07-28T00:07:12;10.68;;;5.55;;
19436;SDS011;9854;50.968;4.168;2023-07-28T00:09:38;5.95;;;5.22;;
19436;SDS011;9854;50.968;4.168;2023-07-28T00:12:04;7.65;;;5.40;;
19436;SDS011;9854;50.968;4.168;2023-07-28T00:14:29;5.72;;;5.22;;
19436;SDS011;9854;50.968;4.168;2023-07-28T00:16:56;5.90;;;4.35;;
19436;SDS011;9854;50.968;4.168;2023-07-28T00:19:22;5.45;;;4.45;;
19436;SDS011;9854;50.968;4.168;2023-07-28T00:21:48;7.75;;;4.60;;
19436;SDS011;9854;50.968;4.168;2023-07-28T00:24:14;7.45;;;4.50;;
19436;SDS011;9854;50.968;4.168;2023-07-28T00:26:40;5.35;;;3.83;;
19436;SDS011;9854;50.968;4.168;2023-07-28T00:29:06;8.45;;;4.00;;
19436;SDS011;9854;50.968;4.168;2023-07-28T00:31:32;6.97;;;4.30;;
19436;SDS011;9854;50.968;4.168;2023-07-28T00:33:59;5.53;;;3.72;;
19436;SDS011;9854;50.968;4.168;2023-07-28T00:36:24;5.85;;;3.42;;
19436;SDS011;9854;50.968;4.168;2023-07-28T00:38:50;4.38;;;3.50;;
19436;SDS011;9854;50.968;4.168;2023-07-28T00:41:15;4.43;;;3.33;;
19436;SDS011;9854;50.968;4.168;2023-07-28T00:43:41;3.50;;;3.20;;
19436;SDS011;9854;50.968;4.168;2023-07-28T00:46:07;3.67;;;3.45;;
19436;SDS011;9854;50.968;4.168;2023-07-28T00:48:34;5.18;;;3.38;;
19436;SDS011;9854;50.968;4.168;2023-07-28T00:51:00;3.63;;;3.30;;
19436;SDS011;9854;50.968;4.168;2023-07-28T00:53:25;7.38;;;4.20;;
19436;SDS011;9854;50.968;4.168;2023-07-28T00:55:52;4.72;;;4.30;;
19436;SDS011;9854;50.968;4.168;2023-07-28T00:58:18;4.90;;;4.30;;
19436;SDS011;9854;50.968;4.168;2023-07-28T01:00:44;7.80;;;4.53;;
19436;SDS011;9854;50.968;4.168;2023-07-28T01:03:09;4.45;;;4.10;;
19436;SDS011;9854;50.968;4.168;2023-07-28T01:08:09;4.95;;;4.38;;
19436;SDS011;9854;50.968;4.168;2023-07-28T01:10:41;5.97;;;3.95;;
19436;SDS011;9854;50.968;4.168;2023-07-28T01:13:08;6.63;;;3.75;;
19436;SDS011;9854;50.968;4.168;2023-07-28T01:15:33;5.32;;;4.20;;
19436;SDS011;9854;50.968;4.168;2023-07-28T01:17:59;4.50;;;4.10;;
19436;SDS011;9854;50.968;4.168;2023-07-28T01:20:25;4.82;;;4.40;;
19436;SDS011;9854;50.968;4.168;2023-07-28T01:28:23;5.50;;;4.10;;
19436;SDS011;9854;50.968;4.168;2023-07-28T01:30:50;5.88;;;4.00;;
19436;SDS011;9854;50.968;4.168;2023-07-28T01:33:16;4.03;;;3.72;;
19436;SDS011;9854;50.968;4.168;2023-07-28T01:35:41;5.90;;;4.38;;
19436;SDS011;9854;50.968;4.168;2023-07-28T01:38:07;6.43;;;3.90;;
19436;SDS011;9854;50.968;4.168;2023-07-28T01:40:33;5.22;;;3.88;;
19436;SDS011;9854;50.968;4.168;2023-07-28T01:42:58;5.00;;;3.53;;
19436;SDS011;9854;50.968;4.168;2023-07-28T01:45:24;6.90;;;3.10;;
19436;SDS011;9854;50.968;4.168;2023-07-28T01:47:50;3.95;;;2.83;;
19436;SDS011;9854;50.968;4.168;2023-07-28T01:50:15;5.93;;;2.88;;
19436;SDS011;9854;50.968;4.168;2023-07-28T01:52:41;2.60;;;2.40;;
19436;SDS011;9854;50.968;4.168;2023-07-28T01:55:07;4.10;;;2.95;;
19436;SDS011;9854;50.968;4.168;2023-07-28T01:57:33;3.75;;;2.20;;
19436;SDS011;9854;50.968;4.168;2023-07-28T01:59:59;4.75;;;2.75;;
19436;SDS011;9854;50.968;4.168;2023-07-28T02:02:24;4.05;;;2.50;;
19436;SDS011;9854;50.968;4.168;2023-07-28T02:04:50;2.78;;;2.58;;
19436;SDS011;9854;50.968;4.168;2023-07-28T02:07:16;3.33;;;3.03;;
19436;SDS011;9854;50.968;4.168;2023-07-28T02:09:41;4.32;;;2.55;;
19436;SDS011;9854;50.968;4.168;2023-07-28T02:12:07;3.22;;;2.80;;
19436;SDS011;9854;50.968;4.168;2023-07-28T02:14:33;4.18;;;2.85;;
19436;SDS011;9854;50.968;4.168;2023-07-28T02:16:58;3.05;;;2.80;;
19436;SDS011;9854;50.968;4.168;2023-07-28T02:19:24;5.00;;;2.97;;
19436;SDS011;9854;50.968;4.168;2023-07-28T02:21:50;3.38;;;2.97;;
19436;SDS011;9854;50.968;4.168;2023-07-28T02:24:16;4.78;;;2.97;;
19436;SDS011;9854;50.968;4.168;2023-07-28T02:26:41;3.28;;;2.92;;
19436;SDS011;9854;50.968;4.168;2023-07-28T02:29:07;3.47;;;2.60;;
19436;SDS011;9854;50.968;4.168;2023-07-28T02:31:32;6.40;;;3.13;;
19436;SDS011;9854;50.968;4.168;2023-07-28T02:33:58;6.72;;;2.58;;
19436;SDS011;9854;50.968;4.168;2023-07-28T02:36:24;4.25;;;3.08;;
19436;SDS011;9854;50.968;4.168;2023-07-28T02:38:49;7.50;;;3.13;;
19436;SDS011;9854;50.968;4.168;2023-07-28T02:41:15;4.82;;;2.65;;
19436;SDS011;9854;50.968;4.168;2023-07-28T02:43:40;2.63;;;2.42;;
19436;SDS011;9854;50.968;4.168;2023-07-28T02:46:06;3.63;;;2.60;;
19436;SDS011;9854;50.968;4.168;2023-07-28T02:48:32;3.45;;;2.85;;
19436;SDS011;9854;50.968;4.168;2023-07-28T02:50:57;5.53;;;2.97;;
19436;SDS011;9854;50.968;4.168;2023-07-28T02:53:23;3.22;;;2.80;;
19436;SDS011;9854;50.968;4.168;2023-07-28T02:55:49;2.65;;;2.45;;
19436;SDS011;9854;50.968;4.168;2023-07-28T02:58:15;3.13;;;2.92;;
19436;SDS011;9854;50.968;4.168;2023-07-28T03:00:41;3.20;;;2.53;;
19436;SDS011;9854;50.968;4.168;2023-07-28T03:03:08;7.78;;;2.97;;
19436;SDS011;9854;50.968;4.168;2023-07-28T03:05:35;4.68;;;3.03;;
19436;SDS011;9854;50.968;4.168;2023-07-28T03:08:02;3.80;;;2.85;;
19436;SDS011;9854;50.968;4.168;2023-07-28T03:10:28;5.88;;;2.70;;
19436;SDS011;9854;50.968;4.168;2023-07-28T03:12:53;2.90;;;2.70;;
19436;SDS011;9854;50.968;4.168;2023-07-28T03:15:20;3.17;;;2.90;;
19436;SDS011;9854;50.968;4.168;2023-07-28T03:17:47;9.23;;;2.72;;
19436;SDS011;9854;50.968;4.168;2023-07-28T03:20:13;2.75;;;2.55;;
19436;SDS011;9854;50.968;4.168;2023-07-28T03:22:38;2.67;;;2.30;;
19436;SDS011;9854;50.968;4.168;2023-07-28T03:25:04;8.02;;;2.80;;
19436;SDS011;9854;50.968;4.168;2023-07-28T03:27:30;7.05;;;2.55;;
19436;SDS011;9854;50.968;4.168;2023-07-28T03:29:56;4.30;;;2.40;;
19436;SDS011;9854;50.968;4.168;2023-07-28T03:32:21;4.93;;;2.45;;
19436;SDS011;9854;50.968;4.168;2023-07-28T03:34:47;6.97;;;2.30;;
19436;SDS011;9854;50.968;4.168;2023-07-28T03:37:12;7.32;;;3.15;;
19436;SDS011;9854;50.968;4.168;2023-07-28T03:39:38;3.30;;;2.45;;
19436;SDS011;9854;50.968;4.168;2023-07-28T03:42:04;6.25;;;2.80;;
19436;SDS011;9854;50.968;4.168;2023-07-28T03:44:30;4.22;;;2.78;;
19436;SDS011;9854;50.968;4.168;2023-07-28T03:46:56;3.08;;;2.78;;
19436;SDS011;9854;50.968;4.168;2023-07-28T03:49:21;3.05;;;2.75;;
19436;SDS011;9854;50.968;4.168;2023-07-28T03:51:47;5.93;;;2.70;;
19436;SDS011;9854;50.968;4.168;2023-07-28T03:54:12;3.45;;;2.72;;
19436;SDS011;9854;50.968;4.168;2023-07-28T03:56:38;11.15;;;3.05;;
19436;SDS011;9854;50.968;4.168;2023-07-28T03:59:04;3.50;;;2.50;;
19436;SDS011;9854;50.968;4.168;2023-07-28T04:01:30;4.55;;;2.88;;
19436;SDS011;9854;50.968;4.168;2023-07-28T04:03:56;4.40;;;3.10;;
19436;SDS011;9854;50.968;4.168;2023-07-28T04:06:38;4.15;;;3.45;;
19436;SDS011;9854;50.968;4.168;2023-07-28T04:09:08;4.03;;;2.70;;
19436;SDS011;9854;50.968;4.168;2023-07-28T04:11:34;3.30;;;3.00;;
19436;SDS011;9854;50.968;4.168;2023-07-28T04:13:59;3.25;;;3.05;;
19436;SDS011;9854;50.968;4.168;2023-07-28T04:16:25;4.75;;;3.35;;
19436;SDS011;9854;50.968;4.168;2023-07-28T04:18:51;2.90;;;2.70;;
19436;SDS011;9854;50.968;4.168;2023-07-28T04:21:16;6.20;;;2.75;;
19436;SDS011;9854;50.968;4.168;2023-07-28T04:23:42;3.03;;;2.80;;
19436;SDS011;9854;50.968;4.168;2023-07-28T04:26:08;4.35;;;3.22;;
19436;SDS011;9854;50.968;4.168;2023-07-28T04:28:34;3.58;;;3.20;;
19436;SDS011;9854;50.968;4.168;2023-07-28T04:31:00;6.88;;;3.17;;
19436;SDS011;9854;50.968;4.168;2023-07-28T04:33:25;3.33;;;3.03;;
19436;SDS011;9854;50.968;4.168;2023-07-28T04:35:51;3.30;;;3.00;;
19436;SDS011;9854;50.968;4.168;2023-07-28T04:38:17;4.82;;;3.13;;
19436;SDS011;9854;50.968;4.168;2023-07-28T04:40:43;6.47;;;2.95;;
19436;SDS011;9854;50.968;4.168;2023-07-28T04:43:09;3.17;;;2.40;;
19436;SDS011;9854;50.968;4.168;2023-07-28T04:45:35;6.15;;;3.20;;
19436;SDS011;9854;50.968;4.168;2023-07-28T04:48:00;5.07;;;2.63;;
19436;SDS011;9854;50.968;4.168;2023-07-28T04:50:27;6.40;;;2.85;;
19436;SDS011;9854;50.968;4.168;2023-07-28T04:52:53;3.72;;;2.58;;
19436;SDS011;9854;50.968;4.168;2023-07-28T04:55:19;8.57;;;2.60;;
19436;SDS011;9854;50.968;4.168;2023-07-28T04:57:45;7.65;;;2.95;;
19436;SDS011;9854;50.968;4.168;2023-07-28T05:00:11;6.38;;;3.35;;
19436;SDS011;9854;50.968;4.168;2023-07-28T05:02:37;6.30;;;3.40;;
19436;SDS011;9854;50.968;4.168;2023-07-28T05:05:03;5.00;;;3.42;;
19436;SDS011;9854;50.968;4.168;2023-07-28T05:07:29;3.70;;;3.40;;
19436;SDS011;9854;50.968;4.168;2023-07-28T05:09:54;6.65;;;3.88;;
19436;SDS011;9854;50.968;4.168;2023-07-28T05:12:20;8.50;;;3.95;;
19436;SDS011;9854;50.968;4.168;2023-07-28T05:14:46;9.30;;;4.38;;
19436;SDS011;9854;50.968;4.168;2023-07-28T05:17:11;5.13;;;4.13;;
19436;SDS011;9854;50.968;4.168;2023-07-28T05:19:37;6.53;;;4.75;;
19436;SDS011;9854;50.968;4.168;2023-07-28T05:22:03;7.90;;;5.00;;
19436;SDS011;9854;50.968;4.168;2023-07-28T05:24:31;7.55;;;5.32;;
19436;SDS011;9854;50.968;4.168;2023-07-28T05:26:57;8.20;;;4.85;;
19436;SDS011;9854;50.968;4.168;2023-07-28T05:29:22;5.00;;;4.60;;
19436;SDS011;9854;50.968;4.168;2023-07-28T05:31:48;6.65;;;5.20;;
19436;SDS011;9854;50.968;4.168;2023-07-28T05:34:13;6.32;;;4.25;;
19436;SDS011;9854;50.968;4.168;2023-07-28T05:36:39;6.10;;;4.38;;
19436;SDS011;9854;50.968;4.168;2023-07-28T05:39:05;7.90;;;3.90;;
19436;SDS011;9854;50.968;4.168;2023-07-28T05:41:30;4.15;;;3.28;;
19436;SDS011;9854;50.968;4.168;2023-07-28T05:43:57;4.53;;;3.70;;
19436;SDS011;9854;50.968;4.168;2023-07-28T05:46:23;4.60;;;3.40;;
19436;SDS011;9854;50.968;4.168;2023-07-28T05:48:48;6.35;;;3.50;;
19436;SDS011;9854;50.968;4.168;2023-07-28T05:51:14;7.75;;;3.20;;
19436;SDS011;9854;50.968;4.168;2023-07-28T05:53:40;3.53;;;2.75;;
19436;SDS011;9854;50.968;4.168;2023-07-28T05:56:05;2.45;;;2.15;;
19436;SDS011;9854;50.968;4.168;2023-07-28T05:58:31;4.03;;;2.80;;
19436;SDS011;9854;50.968;4.168;2023-07-28T06:00:57;5.55;;;1.60;;
19436;SDS011;9854;50.968;4.168;2023-07-28T06:03:22;3.10;;;1.55;;
19436;SDS011;9854;50.968;4.168;2023-07-28T06:05:48;6.40;;;1.10;;
19436;SDS011;9854;50.968;4.168;2023-07-28T06:08:14;3.28;;;1.10;;
19436;SDS011;9854;50.968;4.168;2023-07-28T06:10:39;4.95;;;1.15;;
19436;SDS011;9854;50.968;4.168;2023-07-28T06:13:05;1.40;;;1.27;;
19436;SDS011;9854;50.968;4.168;2023-07-28T06:15:31;1.25;;;1.15;;
19436;SDS011;9854;50.968;4.168;2023-07-28T06:17:56;3.47;;;1.40;;
19436;SDS011;9854;50.968;4.168;2023-07-28T06:20:22;1.15;;;0.90;;
19436;SDS011;9854;50.968;4.168;2023-07-28T06:22:48;1.52;;;1.00;;
19436;SDS011;9854;50.968;4.168;2023-07-28T06:25:13;1.55;;;0.80;;
19436;SDS011;9854;50.968;4.168;2023-07-28T06:27:39;2.90;;;0.60;;
19436;SDS011;9854;50.968;4.168;2023-07-28T06:30:05;3.97;;;0.80;;
19436;SDS011;9854;50.968;4.168;2023-07-28T06:32:31;1.00;;;0.80;;
19436;SDS011;9854;50.968;4.168;2023-07-28T06:34:56;1.38;;;0.68;;
19436;SDS011;9854;50.968;4.168;2023-07-28T06:37:22;2.65;;;0.65;;
19436;SDS011;9854;50.968;4.168;2023-07-28T06:39:48;2.92;;;0.77;;
19436;SDS011;9854;50.968;4.168;2023-07-28T06:42:14;1.80;;;0.70;;
19436;SDS011;9854;50.968;4.168;2023-07-28T06:44:41;2.95;;;0.77;;
19436;SDS011;9854;50.968;4.168;2023-07-28T06:47:07;1.02;;;0.70;;
19436;SDS011;9854;50.968;4.168;2023-07-28T06:49:33;0.50;;;0.50;;
19436;SDS011;9854;50.968;4.168;2023-07-28T06:51:58;2.38;;;0.80;;
19436;SDS011;9854;50.968;4.168;2023-07-28T06:54:24;1.20;;;0.70;;
19436;SDS011;9854;50.968;4.168;2023-07-28T06:56:50;1.30;;;0.70;;
19436;SDS011;9854;50.968;4.168;2023-07-28T06:59:15;2.92;;;1.00;;
19436;SDS011;9854;50.968;4.168;2023-07-28T07:01:41;0.80;;;0.75;;
19436;SDS011;9854;50.968;4.168;2023-07-28T07:04:06;1.75;;;0.80;;
19436;SDS011;9854;50.968;4.168;2023-07-28T07:06:32;0.47;;;0.45;;
19436;SDS011;9854;50.968;4.168;2023-07-28T07:08:58;2.17;;;0.50;;
19436;SDS011;9854;50.968;4.168;2023-07-28T07:11:23;2.05;;;0.80;;
19436;SDS011;9854;50.968;4.168;2023-07-28T07:13:49;2.50;;;0.80;;
19436;SDS011;9854;50.968;4.168;2023-07-28T07:16:15;1.88;;;0.80;;
19436;SDS011;9854;50.968;4.168;2023-07-28T07:18:42;2.47;;;0.80;;
19436;SDS011;9854;50.968;4.168;2023-07-28T07:21:08;5.88;;;1.30;;
19436;SDS011;9854;50.968;4.168;2023-07-28T07:23:34;5.78;;;0.90;;
19436;SDS011;9854;50.968;4.168;2023-07-28T07:25:59;1.70;;;0.70;;
19436;SDS011;9854;50.968;4.168;2023-07-28T07:28:25;1.75;;;0.85;;
19436;SDS011;9854;50.968;4.168;2023-07-28T07:30:52;1.30;;;0.80;;
19436;SDS011;9854;50.968;4.168;2023-07-28T07:33:18;1.02;;;0.80;;
19436;SDS011;9854;50.968;4.168;2023-07-28T07:35:44;2.70;;;1.20;;
19436;SDS011;9854;50.968;4.168;2023-07-28T07:38:09;2.40;;;1.10;;
19436;SDS011;9854;50.968;4.168;2023-07-28T07:40:35;1.77;;;1.10;;
19436;SDS011;9854;50.968;4.168;2023-07-28T07:43:02;2.60;;;1.08;;
19436;SDS011;9854;50.968;4.168;2023-07-28T07:45:31;1.90;;;0.82;;
19436;SDS011;9854;50.968;4.168;2023-07-28T07:48:00;2.80;;;1.17;;
19436;SDS011;9854;50.968;4.168;2023-07-28T07:50:25;1.20;;;1.10;;
19436;SDS011;9854;50.968;4.168;2023-07-28T07:52:51;4.43;;;1.15;;
19436;SDS011;9854;50.968;4.168;2023-07-28T07:55:17;1.27;;;0.80;;
19436;SDS011;9854;50.968;4.168;2023-07-28T07:57:42;1.63;;;1.00;;
19436;SDS011;9854;50.968;4.168;2023-07-28T08:00:08;0.95;;;0.85;;
19436;SDS011;9854;50.968;4.168;2023-07-28T08:02:35;5.97;;;0.98;;
19436;SDS011;9854;50.968;4.168;2023-07-28T08:05:01;1.08;;;0.90;;
19436;SDS011;9854;50.968;4.168;2023-07-28T08:07:28;2.10;;;0.80;;
19436;SDS011;9854;50.968;4.168;2023-07-28T08:09:53;0.80;;;0.80;;
19436;SDS011;9854;50.968;4.168;2023-07-28T08:12:19;1.85;;;0.98;;
19436;SDS011;9854;50.968;4.168;2023-07-28T08:14:45;1.10;;;0.70;;
19436;SDS011;9854;50.968;4.168;2023-07-28T08:17:13;0.98;;;0.95;;
19436;SDS011;9854;50.968;4.168;2023-07-28T08:19:39;2.50;;;0.98;;
19436;SDS011;9854;50.968;4.168;2023-07-28T08:22:04;5.07;;;0.80;;
19436;SDS011;9854;50.968;4.168;2023-07-28T08:24:31;2.88;;;0.73;;
19436;SDS011;9854;50.968;4.168;2023-07-28T08:26:56;4.97;;;1.05;;
19436;SDS011;9854;50.968;4.168;2023-07-28T08:29:22;3.17;;;0.90;;
19436;SDS011;9854;50.968;4.168;2023-07-28T08:31:48;1.38;;;0.70;;
19436;SDS011;9854;50.968;4.168;2023-07-28T08:34:13;1.77;;;1.00;;
19436;SDS011;9854;50.968;4.168;2023-07-28T08:36:40;1.40;;;0.75;;
19436;SDS011;9854;50.968;4.168;2023-07-28T08:39:06;1.55;;;1.08;;
19436;SDS011;9854;50.968;4.168;2023-07-28T08:41:32;1.17;;;0.73;;
19436;SDS011;9854;50.968;4.168;2023-07-28T08:43:57;3.30;;;1.33;;
19436;SDS011;9854;50.968;4.168;2023-07-28T08:46:23;2.55;;;1.13;;
19436;SDS011;9854;50.968;4.168;2023-07-28T08:48:49;5.70;;;0.93;;
19436;SDS011;9854;50.968;4.168;2023-07-28T08:51:14;1.20;;;0.82;;
19436;SDS011;9854;50.968;4.168;2023-07-28T08:53:40;2.35;;;0.65;;
19436;SDS011;9854;50.968;4.168;2023-07-28T08:56:06;2.72;;;0.65;;
19436;SDS011;9854;50.968;4.168;2023-07-28T08:58:32;0.65;;;0.65;;
19436;SDS011;9854;50.968;4.168;2023-07-28T09:00:58;1.63;;;0.90;;
19436;SDS011;9854;50.968;4.168;2023-07-28T09:03:28;0.73;;;0.73;;
19436;SDS011;9854;50.968;4.168;2023-07-28T09:06:03;0.88;;;0.65;;
19436;SDS011;9854;50.968;4.168;2023-07-28T09:08:32;0.60;;;0.60;;
19436;SDS011;9854;50.968;4.168;2023-07-28T09:11:01;1.30;;;0.70;;
19436;SDS011;9854;50.968;4.168;2023-07-28T09:13:35;2.45;;;0.90;;
19436;SDS011;9854;50.968;4.168;2023-07-28T09:16:02;7.10;;;1.33;;
19436;SDS011;9854;50.968;4.168;2023-07-28T09:18:29;1.95;;;0.70;;
19436;SDS011;9854;50.968;4.168;2023-07-28T09:20:55;2.28;;;0.90;;
19436;SDS011;9854;50.968;4.168;2023-07-28T09:23:27;0.85;;;0.80;;
19436;SDS011;9854;50.968;4.168;2023-07-28T09:26:01;1.15;;;0.63;;
19436;SDS011;9854;50.968;4.168;2023-07-28T09:28:37;4.53;;;0.60;;
19436;SDS011;9854;50.968;4.168;2023-07-28T09:31:04;2.50;;;0.57;;
19436;SDS011;9854;50.968;4.168;2023-07-28T09:33:31;3.03;;;0.50;;
19436;SDS011;9854;50.968;4.168;2023-07-28T09:35:58;2.00;;;0.52;;
19436;SDS011;9854;50.968;4.168;2023-07-28T09:38:33;4.25;;;0.47;;
19436;SDS011;9854;50.968;4.168;2023-07-28T09:41:06;0.57;;;0.50;;
19436;SDS011;9854;50.968;4.168;2023-07-28T09:43:35;1.55;;;0.47;;
19436;SDS011;9854;50.968;4.168;2023-07-28T09:46:05;0.90;;;0.50;;
19436;SDS011;9854;50.968;4.168;2023-07-28T09:48:33;0.60;;;0.60;;
19436;SDS011;9854;50.968;4.168;2023-07-28T09:51:00;1.42;;;0.50;;
19436;SDS011;9854;50.968;4.168;2023-07-28T09:53:30;0.93;;;0.65;;
19436;SDS011;9854;50.968;4.168;2023-07-28T09:56:01;0.47;;;0.43;;
19436;SDS011;9854;50.968;4.168;2023-07-28T09:58:27;1.42;;;0.60;;
19436;SDS011;9854;50.968;4.168;2023-07-28T10:00:58;1.27;;;0.52;;
19436;SDS011;9854;50.968;4.168;2023-07-28T10:03:25;0.95;;;0.60;;
19436;SDS011;9854;50.968;4.168;2023-07-28T10:05:51;2.10;;;0.77;;
19436;SDS011;9854;50.968;4.168;2023-07-28T10:08:17;2.28;;;0.60;;
19436;SDS011;9854;50.968;4.168;2023-07-28T10:10:44;1.00;;;0.57;;
19436;SDS011;9854;50.968;4.168;2023-07-28T10:13:19;1.15;;;0.70;;
19436;SDS011;9854;50.968;4.168;2023-07-28T10:15:46;1.58;;;0.80;;
19436;SDS011;9854;50.968;4.168;2023-07-28T10:18:13;1.80;;;0.50;;
19436;SDS011;9854;50.968;4.168;2023-07-28T10:20:39;0.50;;;0.50;;
19436;SDS011;9854;50.968;4.168;2023-07-28T10:25:37;1.08;;;0.50;;
19436;SDS011;9854;50.968;4.168;2023-07-28T10:28:04;3.20;;;0.60;;
19436;SDS011;9854;50.968;4.168;2023-07-28T10:30:37;1.52;;;0.70;;
19436;SDS011;9854;50.968;4.168;2023-07-28T10:33:32;0.68;;;0.50;;
19436;SDS011;9854;50.968;4.168;2023-07-28T10:36:00;4.15;;;0.70;;
19436;SDS011;9854;50.968;4.168;2023-07-28T10:38:40;3.55;;;0.60;;
19436;SDS011;9854;50.968;4.168;2023-07-28T10:41:12;3.05;;;0.77;;
19436;SDS011;9854;50.968;4.168;2023-07-28T10:43:40;3.65;;;0.80;;
19436;SDS011;9854;50.968;4.168;2023-07-28T10:46:10;1.50;;;0.60;;
19436;SDS011;9854;50.968;4.168;2023-07-28T10:48:45;4.15;;;0.60;;
19436;SDS011;9854;50.968;4.168;2023-07-28T10:51:19;1.30;;;0.73;;
19436;SDS011;9854;50.968;4.168;2023-07-28T10:54:10;0.90;;;0.50;;
19436;SDS011;9854;50.968;4.168;2023-07-28T10:56:40;3.60;;;0.70;;
19436;SDS011;9854;50.968;4.168;2023-07-28T10:59:06;1.60;;;0.57;;
19436;SDS011;9854;50.968;4.168;2023-07-28T11:04:10;1.58;;;0.57;;
19436;SDS011;9854;50.968;4.168;2023-07-28T11:06:41;1.17;;;0.52;;
19436;SDS011;9854;50.968;4.168;2023-07-28T11:09:08;2.83;;;0.70;;
19436;SDS011;9854;50.968;4.168;2023-07-28T11:11:35;1.52;;;0.70;;
19436;SDS011;9854;50.968;4.168;2023-07-28T11:14:03;3.80;;;0.60;;
19436;SDS011;9854;50.968;4.168;2023-07-28T11:16:32;0.82;;;0.70;;
19436;SDS011;9854;50.968;4.168;2023-07-28T11:19:03;0.82;;;0.60;;
19436;SDS011;9854;50.968;4.168;2023-07-28T11:21:36;0.52;;;0.47;;
19436;SDS011;9854;50.968;4.168;2023-07-28T11:24:03;3.90;;;0.75;;
19436;SDS011;9854;50.968;4.168;2023-07-28T11:26:29;4.65;;;0.82;;
19436;SDS011;9854;50.968;4.168;2023-07-28T11:28:55;0.73;;;0.50;;
19436;SDS011;9854;50.968;4.168;2023-07-28T11:31:24;0.45;;;0.40;;
19436;SDS011;9854;50.968;4.168;2023-07-28T11:33:51;1.20;;;0.45;;
19436;SDS011;9854;50.968;4.168;2023-07-28T11:36:28;0.73;;;0.65;;
19436;SDS011;9854;50.968;4.168;2023-07-28T11:38:57;1.10;;;0.70;;
19436;SDS011;9854;50.968;4.168;2023-07-28T11:41:24;1.98;;;0.80;;
19436;SDS011;9854;50.968;4.168;2023-07-28T11:43:51;1.52;;;0.93;;
19436;SDS011;9854;50.968;4.168;2023-07-28T11:46:36;1.85;;;0.90;;
19436;SDS011;9854;50.968;4.168;2023-07-28T11:49:09;1.73;;;0.80;;
19436;SDS011;9854;50.968;4.168;2023-07-28T11:51:39;1.52;;;1.00;;
19436;SDS011;9854;50.968;4.168;2023-07-28T11:54:08;0.82;;;0.60;;
19436;SDS011;9854;50.968;4.168;2023-07-28T11:56:45;0.93;;;0.70;;
19436;SDS011;9854;50.968;4.168;2023-07-28T11:59:14;1.60;;;1.00;;
19436;SDS011;9854;50.968;4.168;2023-07-28T12:04:29;2.97;;;0.85;;
19436;SDS011;9854;50.968;4.168;2023-07-28T12:12:26;3.00;;;1.00;;
19436;SDS011;9854;50.968;4.168;2023-07-28T12:14:54;1.48;;;0.77;;
19436;SDS011;9854;50.968;4.168;2023-07-28T12:17:21;1.08;;;0.65;;
19436;SDS011;9854;50.968;4.168;2023-07-28T12:19:58;2.10;;;0.80;;
19436;SDS011;9854;50.968;4.168;2023-07-28T12:22:27;1.98;;;0.63;;
19436;SDS011;9854;50.968;4.168;2023-07-28T12:24:53;2.22;;;0.90;;
19436;SDS011;9854;50.968;4.168;2023-07-28T12:27:19;3.30;;;0.70;;
19436;SDS011;9854;50.968;4.168;2023-07-28T12:29:48;1.30;;;0.88;;
19436;SDS011;9854;50.968;4.168;2023-07-28T12:32:14;1.45;;;0.88;;
19436;SDS011;9854;50.968;4.168;2023-07-28T12:34:40;0.70;;;0.70;;
19436;SDS011;9854;50.968;4.168;2023-07-28T12:37:05;3.72;;;0.88;;
19436;SDS011;9854;50.968;4.168;2023-07-28T12:39:31;1.63;;;0.90;;
19436;SDS011;9854;50.968;4.168;2023-07-28T12:41:58;1.38;;;0.95;;
19436;SDS011;9854;50.968;4.168;2023-07-28T12:44:23;3.30;;;0.95;;
19436;SDS011;9854;50.968;4.168;2023-07-28T12:46:49;2.20;;;0.98;;
19436;SDS011;9854;50.968;4.168;2023-07-28T12:49:15;1.77;;;0.90;;
19436;SDS011;9854;50.968;4.168;2023-07-28T12:51:40;1.60;;;0.70;;
19436;SDS011;9854;50.968;4.168;2023-07-28T12:54:06;4.22;;;0.85;;
19436;SDS011;9854;50.968;4.168;2023-07-28T12:56:32;1.02;;;0.63;;
19436;SDS011;9854;50.968;4.168;2023-07-28T12:58:58;2.45;;;0.80;;
19436;SDS011;9854;50.968;4.168;2023-07-28T13:01:23;1.65;;;0.70;;
19436;SDS011;9854;50.968;4.168;2023-07-28T13:03:49;2.88;;;1.23;;
19436;SDS011;9854;50.968;4.168;2023-07-28T13:06:15;1.23;;;0.60;;
19436;SDS011;9854;50.968;4.168;2023-07-28T13:08:40;2.55;;;0.85;;
19436;SDS011;9854;50.968;4.168;2023-07-28T13:11:06;1.33;;;0.80;;
19436;SDS011;9854;50.968;4.168;2023-07-28T13:13:31;5.82;;;1.02;;
19436;SDS011;9854;50.968;4.168;2023-07-28T13:15:58;1.73;;;0.60;;
19436;SDS011;9854;50.968;4.168;2023-07-28T13:18:24;1.30;;;0.68;;
19436;SDS011;9854;50.968;4.168;2023-07-28T13:20:50;2.35;;;0.90;;
19436;SDS011;9854;50.968;4.168;2023-07-28T13:23:16;2.58;;;0.90;;
19436;SDS011;9854;50.968;4.168;2023-07-28T13:25:42;1.50;;;0.80;;
19436;SDS011;9854;50.968;4.168;2023-07-28T13:28:07;1.45;;;1.00;;
19436;SDS011;9854;50.968;4.168;2023-07-28T13:30:33;4.10;;;1.00;;
19436;SDS011;9854;50.968;4.168;2023-07-28T13:32:59;1.15;;;0.98;;
19436;SDS011;9854;50.968;4.168;2023-07-28T13:35:25;1.70;;;1.15;;
19436;SDS011;9854;50.968;4.168;2023-07-28T13:37:51;1.80;;;0.90;;
19436;SDS011;9854;50.968;4.168;2023-07-28T13:40:16;2.17;;;0.80;;
19436;SDS011;9854;50.968;4.168;2023-07-28T13:42:42;3.25;;;0.80;;
19436;SDS011;9854;50.968;4.168;2023-07-28T13:45:08;1.23;;;0.70;;
19436;SDS011;9854;50.968;4.168;2023-07-28T13:47:34;2.25;;;1.00;;
19436;SDS011;9854;50.968;4.168;2023-07-28T13:50:00;1.50;;;0.98;;
19436;SDS011;9854;50.968;4.168;2023-07-28T13:52:25;5.28;;;1.05;;
19436;SDS011;9854;50.968;4.168;2023-07-28T13:54:51;2.05;;;1.00;;
19436;SDS011;9854;50.968;4.168;2023-07-28T13:57:17;1.13;;;0.70;;
19436;SDS011;9854;50.968;4.168;2023-07-28T13:59:43;0.93;;;0.93;;
19436;SDS011;9854;50.968;4.168;2023-07-28T14:02:09;1.88;;;0.90;;
19436;SDS011;9854;50.968;4.168;2023-07-28T14:04:34;2.67;;;0.70;;
19436;SDS011;9854;50.968;4.168;2023-07-28T14:07:00;1.27;;;0.77;;
19436;SDS011;9854;50.968;4.168;2023-07-28T14:09:26;1.17;;;0.80;;
19436;SDS011;9854;50.968;4.168;2023-07-28T14:11:51;2.92;;;0.90;;
19436;SDS011;9854;50.968;4.168;2023-07-28T14:14:17;2.58;;;1.30;;
19436;SDS011;9854;50.968;4.168;2023-07-28T14:16:42;3.00;;;1.08;;
19436;SDS011;9854;50.968;4.168;2023-07-28T14:19:08;1.40;;;1.10;;
19436;SDS011;9854;50.968;4.168;2023-07-28T14:21:34;1.33;;;0.80;;
19436;SDS011;9854;50.968;4.168;2023-07-28T14:23:59;1.13;;;0.95;;
19436;SDS011;9854;50.968;4.168;2023-07-28T14:26:25;1.45;;;1.00;;
19436;SDS011;9854;50.968;4.168;2023-07-28T14:28:51;2.22;;;1.30;;
19436;SDS011;9854;50.968;4.168;2023-07-28T14:31:16;2.38;;;1.30;;
19436;SDS011;9854;50.968;4.168;2023-07-28T14:33:42;2.63;;;1.08;;
19436;SDS011;9854;50.968;4.168;2023-07-28T14:36:08;4.32;;;1.10;;
19436;SDS011;9854;50.968;4.168;2023-07-28T14:38:34;1.40;;;0.90;;
19436;SDS011;9854;50.968;4.168;2023-07-28T14:40:59;1.77;;;1.05;;
19436;SDS011;9854;50.968;4.168;2023-07-28T14:43:25;2.10;;;0.98;;
19436;SDS011;9854;50.968;4.168;2023-07-28T14:45:51;2.85;;;1.05;;
19436;SDS011;9854;50.968;4.168;2023-07-28T14:48:16;1.15;;;0.85;;
19436;SDS011;9854;50.968;4.168;2023-07-28T14:50:42;2.95;;;1.92;;
19436;SDS011;9854;50.968;4.168;2023-07-28T14:56:00;2.47;;;1.17;;
19436;SDS011;9854;50.968;4.168;2023-07-28T14:58:27;2.05;;;1.17;;
19436;SDS011;9854;50.968;4.168;2023-07-28T15:00:53;1.70;;;1.00;;
19436;SDS011;9854;50.968;4.168;2023-07-28T15:03:19;1.80;;;1.15;;
19436;SDS011;9854;50.968;4.168;2023-07-28T15:05:44;1.33;;;0.93;;
19436;SDS011;9854;50.968;4.168;2023-07-28T15:08:10;3.30;;;0.90;;
19436;SDS011;9854;50.968;4.168;2023-07-28T15:10:36;1.27;;;0.90;;
19436;SDS011;9854;50.968;4.168;2023-07-28T15:13:02;1.17;;;0.95;;
19436;SDS011;9854;50.968;4.168;2023-07-28T15:15:27;1.60;;;0.80;;
19436;SDS011;9854;50.968;4.168;2023-07-28T15:17:53;1.92;;;1.20;;
19436;SDS011;9854;50.968;4.168;2023-07-28T15:20:18;2.85;;;0.80;;
19436;SDS011;9854;50.968;4.168;2023-07-28T15:22:46;1.38;;;0.98;;